sensor_id;sensor_type;location;lat;lon;timestamp;pressure;altitude;pressure_sealevel;temperature;humidity
48848;BME280;36611;51.638;5.784;2023-04-19T00:00:31;102623.81;;;22.43;38.59
48848;BME280;36611;51.638;5.784;2023-04-19T00:02:58;102616.44;;;22.44;38.70
48848;BME280;36611;51.638;5.784;2023-04-19T00:05:27;102618.19;;;22.45;38.58
48848;BME280;36611;51.638;5.784;2023-04-19T00:07:53;102610.97;;;22.44;38.79
48848;BME280;36611;51.638;5.784;2023-04-19T00:10:20;102618.19;;;22.45;38.94
48848;BME280;36611;51.638;5.784;2023-04-19T00:12:46;102618.19;;;22.45;38.72
48848;BME280;36611;51.638;5.784;2023-04-19T00:15:13;102613.56;;;22.45;38.51
48848;BME280;36611;51.638;5.784;2023-04-19T00:17:39;102616.31;;;22.45;38.60
48848;BME280;36611;51.638;5.784;2023-04-19T00:20:08;102609.81;;;22.46;38.47
48848;BME280;36611;51.638;5.784;2023-04-19T00:22:35;102608.97;;;22.46;38.52
48848;BME280;36611;51.638;5.784;2023-04-19T00:25:02;102609.81;;;22.46;38.73
48848;BME280;36611;51.638;5.784;2023-04-19T00:27:29;102610.69;;;22.47;38.81
48848;BME280;36611;51.638;5.784;2023-04-19T00:29:56;102606.22;;;22.46;38.71
48848;BME280;36611;51.638;5.784;2023-04-19T00:32:25;102606.22;;;22.46;38.77
48848;BME280;36611;51.638;5.784;2023-04-19T00:34:52;102602.63;;;22.45;38.65
48848;BME280;36611;51.638;5.784;2023-04-19T00:37:20;102608.97;;;22.46;38.88
48848;BME280;36611;51.638;5.784;2023-04-19T00:39:46;102606.22;;;22.46;38.45
48848;BME280;36611;51.638;5.784;2023-04-19T00:42:13;102597.16;;;22.45;38.51
48848;BME280;36611;51.638;5.784;2023-04-19T00:44:39;102602.63;;;22.45;38.90
48848;BME280;36611;51.638;5.784;2023-04-19T00:47:07;102602.63;;;22.45;38.82
48848;BME280;36611;51.638;5.784;2023-04-19T00:49:34;102593.53;;;22.45;38.65
48848;BME280;36611;51.638;5.784;2023-04-19T00:52:01;102597.16;;;22.45;38.42
48848;BME280;36611;51.638;5.784;2023-04-19T00:54:28;102599.03;;;22.45;38.63
48848;BME280;36611;51.638;5.784;2023-04-19T00:56:55;102595.41;;;22.44;38.61
48848;BME280;36611;51.638;5.784;2023-04-19T00:59:23;102588.06;;;22.45;38.77
48848;BME280;36611;51.638;5.784;2023-04-19T01:01:50;102587.22;;;22.44;38.52
48848;BME280;36611;51.638;5.784;2023-04-19T01:04:16;102592.69;;;22.44;38.58
48848;BME280;36611;51.638;5.784;2023-04-19T01:06:45;102580.00;;;22.43;38.42
48848;BME280;36611;51.638;5.784;2023-04-19T01:09:11;102578.28;;;22.42;38.84
48848;BME280;36611;51.638;5.784;2023-04-19T01:11:39;102573.66;;;22.43;38.47
48848;BME280;36611;51.638;5.784;2023-04-19T01:14:08;102574.66;;;22.42;38.66
48848;BME280;36611;51.638;5.784;2023-04-19T01:16:36;102569.34;;;22.40;38.51
48848;BME280;36611;51.638;5.784;2023-04-19T01:19:04;102568.34;;;22.41;38.48
48848;BME280;36611;51.638;5.784;2023-04-19T01:21:31;102570.19;;;22.41;38.45
48848;BME280;36611;51.638;5.784;2023-04-19T01:23:57;102578.41;;;22.41;38.51
48848;BME280;36611;51.638;5.784;2023-04-19T01:26:24;102573.81;;;22.41;38.69
48848;BME280;36611;51.638;5.784;2023-04-19T01:28:50;102571.06;;;22.41;38.63
48848;BME280;36611;51.638;5.784;2023-04-19T01:31:17;102576.69;;;22.40;38.57
48848;BME280;36611;51.638;5.784;2023-04-19T01:33:43;102568.47;;;22.40;38.57
48848;BME280;36611;51.638;5.784;2023-04-19T01:36:10;102566.59;;;22.40;38.76
48848;BME280;36611;51.638;5.784;2023-04-19T01:38:40;102567.47;;;22.41;38.75
48848;BME280;36611;51.638;5.784;2023-04-19T01:41:08;102570.19;;;22.41;38.87
48848;BME280;36611;51.638;5.784;2023-04-19T01:43:34;102566.59;;;22.40;38.57
48848;BME280;36611;51.638;5.784;2023-04-19T01:46:01;102556.50;;;22.41;38.87
48848;BME280;36611;51.638;5.784;2023-04-19T01:48:28;102564.72;;;22.41;38.60
48848;BME280;36611;51.638;5.784;2023-04-19T01:50:55;102566.59;;;22.40;38.60
48848;BME280;36611;51.638;5.784;2023-04-19T01:53:21;102565.59;;;22.41;38.76
48848;BME280;36611;51.638;5.784;2023-04-19T01:55:48;102564.72;;;22.41;38.39
48848;BME280;36611;51.638;5.784;2023-04-19T01:58:15;102561.13;;;22.40;38.49
48848;BME280;36611;51.638;5.784;2023-04-19T02:00:42;102569.19;;;22.42;38.69
48848;BME280;36611;51.638;5.784;2023-04-19T02:03:09;102567.31;;;22.42;39.06
48848;BME280;36611;51.638;5.784;2023-04-19T02:05:38;102560.13;;;22.41;38.86
48848;BME280;36611;51.638;5.784;2023-04-19T02:08:04;102557.38;;;22.41;38.50
48848;BME280;36611;51.638;5.784;2023-04-19T02:10:31;102562.84;;;22.41;38.63
48848;BME280;36611;51.638;5.784;2023-04-19T02:12:57;102567.47;;;22.41;38.37
48848;BME280;36611;51.638;5.784;2023-04-19T02:15:24;102567.47;;;22.41;38.58
48848;BME280;36611;51.638;5.784;2023-04-19T02:17:50;102568.34;;;22.41;38.63
48848;BME280;36611;51.638;5.784;2023-04-19T02:20:18;102562.00;;;22.41;38.50
48848;BME280;36611;51.638;5.784;2023-04-19T02:22:44;102559.25;;;22.41;38.75
48848;BME280;36611;51.638;5.784;2023-04-19T02:25:11;102558.38;;;22.40;38.60
48848;BME280;36611;51.638;5.784;2023-04-19T02:27:37;102560.25;;;22.40;38.48
48848;BME280;36611;51.638;5.784;2023-04-19T02:30:04;102557.38;;;22.41;38.86
48848;BME280;36611;51.638;5.784;2023-04-19T02:32:32;102561.13;;;22.40;38.56
48848;BME280;36611;51.638;5.784;2023-04-19T02:34:59;102558.38;;;22.40;38.49
48848;BME280;36611;51.638;5.784;2023-04-19T02:37:27;102562.00;;;22.41;38.71
48848;BME280;36611;51.638;5.784;2023-04-19T02:39:55;102560.25;;;22.40;38.64
48848;BME280;36611;51.638;5.784;2023-04-19T02:42:22;102566.59;;;22.40;38.54
48848;BME280;36611;51.638;5.784;2023-04-19T02:44:48;102560.13;;;22.41;38.45
48848;BME280;36611;51.638;5.784;2023-04-19T02:47:15;102561.13;;;22.40;38.70
48848;BME280;36611;51.638;5.784;2023-04-19T02:49:41;102567.47;;;22.41;38.32
48848;BME280;36611;51.638;5.784;2023-04-19T02:52:08;102559.25;;;22.41;38.60
48848;BME280;36611;51.638;5.784;2023-04-19T02:54:38;102562.00;;;22.41;38.63
48848;BME280;36611;51.638;5.784;2023-04-19T02:57:06;102569.34;;;22.40;38.58
48848;BME280;36611;51.638;5.784;2023-04-19T02:59:33;102564.72;;;22.41;38.84
48848;BME280;36611;51.638;5.784;2023-04-19T03:02:02;102573.81;;;22.41;38.28
48848;BME280;36611;51.638;5.784;2023-04-19T03:04:29;102569.34;;;22.40;38.70
48848;BME280;36611;51.638;5.784;2023-04-19T03:06:57;102572.06;;;22.40;38.37
48848;BME280;36611;51.638;5.784;2023-04-19T03:09:23;102571.06;;;22.41;38.58
48848;BME280;36611;51.638;5.784;2023-04-19T03:11:50;102569.19;;;22.42;39.03
48848;BME280;36611;51.638;5.784;2023-04-19T03:14:16;102562.00;;;22.41;38.68
48848;BME280;36611;51.638;5.784;2023-04-19T03:16:43;102562.00;;;22.41;38.87
48848;BME280;36611;51.638;5.784;2023-04-19T03:19:10;102566.47;;;22.42;38.57
48848;BME280;36611;51.638;5.784;2023-04-19T03:21:43;102559.25;;;22.41;38.75
48848;BME280;36611;51.638;5.784;2023-04-19T03:24:10;102556.50;;;22.41;38.51
48848;BME280;36611;51.638;5.784;2023-04-19T03:26:41;102548.31;;;22.41;38.66
48848;BME280;36611;51.638;5.784;2023-04-19T03:29:08;102554.63;;;22.41;38.50
48848;BME280;36611;51.638;5.784;2023-04-19T03:31:41;102557.53;;;22.40;38.32
48848;BME280;36611;51.638;5.784;2023-04-19T03:34:10;102554.63;;;22.41;38.71
48848;BME280;36611;51.638;5.784;2023-04-19T03:36:41;102551.91;;;22.41;38.54
48848;BME280;36611;51.638;5.784;2023-04-19T03:39:08;102555.50;;;22.42;38.43
48848;BME280;36611;51.638;5.784;2023-04-19T03:41:39;102555.50;;;22.42;38.54
48848;BME280;36611;51.638;5.784;2023-04-19T03:44:20;102556.50;;;22.41;38.75
48848;BME280;36611;51.638;5.784;2023-04-19T03:46:47;102558.25;;;22.42;38.81
48848;BME280;36611;51.638;5.784;2023-04-19T03:49:18;102551.03;;;22.41;38.39
48848;BME280;36611;51.638;5.784;2023-04-19T03:51:50;102560.97;;;22.42;38.77
48848;BME280;36611;51.638;5.784;2023-04-19T03:54:16;102561.84;;;22.42;38.55
48848;BME280;36611;51.638;5.784;2023-04-19T03:56:43;102555.50;;;22.42;38.47
48848;BME280;36611;51.638;5.784;2023-04-19T03:59:11;102555.38;;;22.43;38.74
48848;BME280;36611;51.638;5.784;2023-04-19T04:01:38;102562.72;;;22.43;38.79
48848;BME280;36611;51.638;5.784;2023-04-19T04:04:08;102560.84;;;22.43;38.75
48848;BME280;36611;51.638;5.784;2023-04-19T04:06:35;102566.31;;;22.43;38.58
48848;BME280;36611;51.638;5.784;2023-04-19T04:09:01;102561.69;;;22.44;38.55
48848;BME280;36611;51.638;5.784;2023-04-19T04:11:29;102561.69;;;22.44;38.56
48848;BME280;36611;51.638;5.784;2023-04-19T04:13:56;102564.28;;;22.45;38.77
48848;BME280;36611;51.638;5.784;2023-04-19T04:16:26;102568.03;;;22.44;38.72
48848;BME280;36611;51.638;5.784;2023-04-19T04:18:54;102569.03;;;22.43;38.50
48848;BME280;36611;51.638;5.784;2023-04-19T04:21:24;102568.03;;;22.44;38.46
48848;BME280;36611;51.638;5.784;2023-04-19T04:23:54;102574.38;;;22.45;38.21
48848;BME280;36611;51.638;5.784;2023-04-19T04:26:35;102574.53;;;22.43;38.70
48848;BME280;36611;51.638;5.784;2023-04-19T04:29:12;102561.84;;;22.42;38.56
48848;BME280;36611;51.638;5.784;2023-04-19T04:31:40;102565.31;;;22.44;38.70
48848;BME280;36611;51.638;5.784;2023-04-19T04:34:08;102567.16;;;22.44;38.44
48848;BME280;36611;51.638;5.784;2023-04-19T04:36:42;102570.78;;;22.44;38.48
48848;BME280;36611;51.638;5.784;2023-04-19T04:39:08;102555.38;;;22.43;38.70
48848;BME280;36611;51.638;5.784;2023-04-19T04:41:37;102562.56;;;22.44;38.67
48848;BME280;36611;51.638;5.784;2023-04-19T04:44:07;102563.44;;;22.45;38.34
48848;BME280;36611;51.638;5.784;2023-04-19T04:46:38;102559.81;;;22.44;38.52
48848;BME280;36611;51.638;5.784;2023-04-19T04:49:06;102555.22;;;22.45;38.41
48848;BME280;36611;51.638;5.784;2023-04-19T04:51:33;102555.22;;;22.45;38.68
48848;BME280;36611;51.638;5.784;2023-04-19T04:54:00;102563.44;;;22.45;38.52
48848;BME280;36611;51.638;5.784;2023-04-19T04:56:27;102559.81;;;22.44;38.58
48848;BME280;36611;51.638;5.784;2023-04-19T04:58:53;102558.81;;;22.45;38.48
48848;BME280;36611;51.638;5.784;2023-04-19T05:01:27;102552.47;;;22.45;38.80
48848;BME280;36611;51.638;5.784;2023-04-19T05:03:53;102557.94;;;22.45;38.55
48848;BME280;36611;51.638;5.784;2023-04-19T05:06:20;102562.41;;;22.46;38.66
48848;BME280;36611;51.638;5.784;2023-04-19T05:08:46;102565.16;;;22.46;38.43
48848;BME280;36611;51.638;5.784;2023-04-19T05:11:19;102570.63;;;22.46;38.54
48848;BME280;36611;51.638;5.784;2023-04-19T05:13:46;102564.28;;;22.45;38.22
48848;BME280;36611;51.638;5.784;2023-04-19T05:16:13;102567.91;;;22.46;38.53
48848;BME280;36611;51.638;5.784;2023-04-19T05:18:43;102573.38;;;22.46;38.66
48848;BME280;36611;51.638;5.784;2023-04-19T05:21:10;102569.63;;;22.47;38.50
48848;BME280;36611;51.638;5.784;2023-04-19T05:23:38;102574.22;;;22.46;38.75
48848;BME280;36611;51.638;5.784;2023-04-19T05:26:04;102574.22;;;22.46;38.54
48848;BME280;36611;51.638;5.784;2023-04-19T05:28:31;102574.22;;;22.46;38.53
48848;BME280;36611;51.638;5.784;2023-04-19T05:31:06;102578.84;;;22.46;38.78
48848;BME280;36611;51.638;5.784;2023-04-19T05:33:40;102576.97;;;22.46;38.77
48848;BME280;36611;51.638;5.784;2023-04-19T05:36:08;102576.97;;;22.46;38.72
48848;BME280;36611;51.638;5.784;2023-04-19T05:38:34;102576.81;;;22.48;38.58
48848;BME280;36611;51.638;5.784;2023-04-19T05:41:03;102579.56;;;22.48;38.56
48848;BME280;36611;51.638;5.784;2023-04-19T05:43:30;102568.63;;;22.48;38.72
48848;BME280;36611;51.638;5.784;2023-04-19T05:45:57;102574.09;;;22.48;38.62
48848;BME280;36611;51.638;5.784;2023-04-19T05:48:24;102580.44;;;22.48;38.21
48848;BME280;36611;51.638;5.784;2023-04-19T05:51:12;102590.50;;;22.48;38.73
48848;BME280;36611;51.638;5.784;2023-04-19T05:53:48;102578.69;;;22.47;38.52
48848;BME280;36611;51.638;5.784;2023-04-19T05:56:15;102581.44;;;22.47;38.76
48848;BME280;36611;51.638;5.784;2023-04-19T05:58:42;102573.06;;;22.49;38.41
48848;BME280;36611;51.638;5.784;2023-04-19T06:01:08;102578.56;;;22.49;38.40
48848;BME280;36611;51.638;5.784;2023-04-19T06:03:35;102576.69;;;22.49;38.56
48848;BME280;36611;51.638;5.784;2023-04-19T06:06:02;102574.94;;;22.48;38.45
48848;BME280;36611;51.638;5.784;2023-04-19T06:08:28;102573.94;;;22.49;38.67
48848;BME280;36611;51.638;5.784;2023-04-19T06:10:55;102573.94;;;22.49;38.82
48848;BME280;36611;51.638;5.784;2023-04-19T06:13:33;102581.28;;;22.49;38.63
48848;BME280;36611;51.638;5.784;2023-04-19T06:16:00;102573.06;;;22.49;38.51
48848;BME280;36611;51.638;5.784;2023-04-19T06:18:26;102574.94;;;22.48;38.44
48848;BME280;36611;51.638;5.784;2023-04-19T06:20:53;102579.56;;;22.48;38.38
48848;BME280;36611;51.638;5.784;2023-04-19T06:23:19;102572.22;;;22.48;38.36
48848;BME280;36611;51.638;5.784;2023-04-19T06:25:46;102575.97;;;22.47;38.71
48848;BME280;36611;51.638;5.784;2023-04-19T06:28:14;102577.84;;;22.47;38.58
48848;BME280;36611;51.638;5.784;2023-04-19T06:30:41;102583.31;;;22.47;38.76
48848;BME280;36611;51.638;5.784;2023-04-19T06:33:07;102586.06;;;22.47;38.58
48848;BME280;36611;51.638;5.784;2023-04-19T06:35:34;102598.00;;;22.46;38.40
48848;BME280;36611;51.638;5.784;2023-04-19T06:38:00;102587.06;;;22.46;38.61
48848;BME280;36611;51.638;5.784;2023-04-19T06:40:27;102594.25;;;22.47;38.67
48848;BME280;36611;51.638;5.784;2023-04-19T06:42:54;102578.84;;;22.46;38.59
48848;BME280;36611;51.638;5.784;2023-04-19T06:45:21;102577.13;;;22.45;38.37
48848;BME280;36611;51.638;5.784;2023-04-19T06:47:48;102578.84;;;22.46;38.29
48848;BME280;36611;51.638;5.784;2023-04-19T06:50:14;102581.59;;;22.46;38.61
48848;BME280;36611;51.638;5.784;2023-04-19T06:52:42;102583.59;;;22.44;38.22
48848;BME280;36611;51.638;5.784;2023-04-19T06:55:08;102590.81;;;22.45;38.36
48848;BME280;36611;51.638;5.784;2023-04-19T06:57:35;102579.00;;;22.44;38.28
48848;BME280;36611;51.638;5.784;2023-04-19T07:00:02;102587.06;;;22.46;38.52
48848;BME280;36611;51.638;5.784;2023-04-19T07:02:29;102589.06;;;22.44;38.48
48848;BME280;36611;51.638;5.784;2023-04-19T07:04:56;102584.47;;;22.44;38.29
48848;BME280;36611;51.638;5.784;2023-04-19T07:07:22;102575.38;;;22.44;38.44
48848;BME280;36611;51.638;5.784;2023-04-19T07:09:49;102593.69;;;22.43;38.27
48848;BME280;36611;51.638;5.784;2023-04-19T07:12:15;102574.66;;;22.42;38.43
48848;BME280;36611;51.638;5.784;2023-04-19T07:14:42;102575.53;;;22.42;38.15
48848;BME280;36611;51.638;5.784;2023-04-19T07:17:08;102573.81;;;22.41;38.47
48848;BME280;36611;51.638;5.784;2023-04-19T07:19:35;102575.53;;;22.42;38.32
48848;BME280;36611;51.638;5.784;2023-04-19T07:22:02;102573.81;;;22.41;38.25
48848;BME280;36611;51.638;5.784;2023-04-19T07:24:30;102574.66;;;22.42;38.16
48848;BME280;36611;51.638;5.784;2023-04-19T07:26:57;102582.00;;;22.41;38.20
48848;BME280;36611;51.638;5.784;2023-04-19T07:29:23;102590.22;;;22.41;38.14
48848;BME280;36611;51.638;5.784;2023-04-19T07:31:50;102579.28;;;22.41;38.21
48848;BME280;36611;51.638;5.784;2023-04-19T07:34:17;102588.50;;;22.40;38.14
48848;BME280;36611;51.638;5.784;2023-04-19T07:36:43;102583.88;;;22.41;38.37
48848;BME280;36611;51.638;5.784;2023-04-19T07:39:10;102580.28;;;22.40;38.43
48848;BME280;36611;51.638;5.784;2023-04-19T07:41:37;102582.16;;;22.40;38.46
48848;BME280;36611;51.638;5.784;2023-04-19T07:44:03;102575.81;;;22.39;38.14
48848;BME280;36611;51.638;5.784;2023-04-19T07:46:30;102577.69;;;22.39;38.31
48848;BME280;36611;51.638;5.784;2023-04-19T07:48:57;102585.75;;;22.40;38.00
48848;BME280;36611;51.638;5.784;2023-04-19T07:51:23;102589.50;;;22.39;37.93
48848;BME280;36611;51.638;5.784;2023-04-19T07:53:50;102587.63;;;22.40;38.19
48848;BME280;36611;51.638;5.784;2023-04-19T07:56:17;102585.91;;;22.39;38.12
48848;BME280;36611;51.638;5.784;2023-04-19T07:58:45;102585.91;;;22.39;38.08
48848;BME280;36611;51.638;5.784;2023-04-19T08:01:22;102576.69;;;22.40;38.09
48848;BME280;36611;51.638;5.784;2023-04-19T08:03:48;102580.44;;;22.39;38.09
48848;BME280;36611;51.638;5.784;2023-04-19T08:06:15;102574.09;;;22.38;37.99
48848;BME280;36611;51.638;5.784;2023-04-19T08:08:43;102579.44;;;22.40;38.16
48848;BME280;36611;51.638;5.784;2023-04-19T08:11:09;102583.16;;;22.39;37.99
48848;BME280;36611;51.638;5.784;2023-04-19T08:13:36;102576.69;;;22.40;38.02
48848;BME280;36611;51.638;5.784;2023-04-19T08:16:05;102573.94;;;22.40;38.13
48848;BME280;36611;51.638;5.784;2023-04-19T08:18:34;102581.28;;;22.39;38.06
48848;BME280;36611;51.638;5.784;2023-04-19T08:21:01;102586.78;;;22.39;37.84
48848;BME280;36611;51.638;5.784;2023-04-19T08:23:28;102584.91;;;22.40;38.16
48848;BME280;36611;51.638;5.784;2023-04-19T08:26:03;102573.53;;;22.35;38.01
48848;BME280;36611;51.638;5.784;2023-04-19T08:28:29;102576.25;;;22.35;38.13
48848;BME280;36611;51.638;5.784;2023-04-19T08:30:57;102571.50;;;22.37;38.08
48848;BME280;36611;51.638;5.784;2023-04-19T08:33:24;102588.78;;;22.37;37.94
48848;BME280;36611;51.638;5.784;2023-04-19T08:35:50;102570.63;;;22.36;38.13
48848;BME280;36611;51.638;5.784;2023-04-19T08:38:17;102574.25;;;22.37;37.82
48848;BME280;36611;51.638;5.784;2023-04-19T08:40:50;102569.63;;;22.37;38.00
48848;BME280;36611;51.638;5.784;2023-04-19T08:43:24;102576.97;;;22.37;38.03
48848;BME280;36611;51.638;5.784;2023-04-19T08:45:51;102586.06;;;22.37;37.52
48848;BME280;36611;51.638;5.784;2023-04-19T08:48:19;102583.31;;;22.37;37.62
48848;BME280;36611;51.638;5.784;2023-04-19T08:50:47;102575.09;;;22.37;37.44
48848;BME280;36611;51.638;5.784;2023-04-19T08:53:33;102572.38;;;22.37;37.79
48848;BME280;36611;51.638;5.784;2023-04-19T08:56:00;102570.63;;;22.36;37.47
48848;BME280;36611;51.638;5.784;2023-04-19T08:58:30;102565.16;;;22.36;37.30
48848;BME280;36611;51.638;5.784;2023-04-19T09:01:18;102567.03;;;22.36;37.34
48848;BME280;36611;51.638;5.784;2023-04-19T09:04:04;102567.03;;;22.36;37.33
48848;BME280;36611;51.638;5.784;2023-04-19T09:06:52;102568.91;;;22.35;37.23
48848;BME280;36611;51.638;5.784;2023-04-19T09:09:26;102570.63;;;22.36;37.45
48848;BME280;36611;51.638;5.784;2023-04-19T09:11:56;102565.16;;;22.36;37.13
48848;BME280;36611;51.638;5.784;2023-04-19T09:14:25;102560.69;;;22.35;37.29
48848;BME280;36611;51.638;5.784;2023-04-19T09:16:52;102560.56;;;22.37;37.52
48848;BME280;36611;51.638;5.784;2023-04-19T09:19:18;102581.59;;;22.36;37.53
48848;BME280;36611;51.638;5.784;2023-04-19T09:21:51;102570.63;;;22.36;37.40
48848;BME280;36611;51.638;5.784;2023-04-19T09:24:36;102566.88;;;22.37;37.32
48848;BME280;36611;51.638;5.784;2023-04-19T09:27:26;102567.03;;;22.36;37.10
48848;BME280;36611;51.638;5.784;2023-04-19T09:29:58;102581.44;;;22.38;37.14
48848;BME280;36611;51.638;5.784;2023-04-19T09:32:25;102583.31;;;22.37;37.30
48848;BME280;36611;51.638;5.784;2023-04-19T09:34:57;102564.16;;;22.37;37.35
48848;BME280;36611;51.638;5.784;2023-04-19T09:37:25;102552.19;;;22.38;37.11
48848;BME280;36611;51.638;5.784;2023-04-19T09:40:22;102564.16;;;22.37;37.25
48848;BME280;36611;51.638;5.784;2023-04-19T09:42:49;102566.88;;;22.37;37.21
48848;BME280;36611;51.638;5.784;2023-04-19T09:45:19;102566.88;;;22.37;37.23
48848;BME280;36611;51.638;5.784;2023-04-19T09:48:04;102575.97;;;22.38;37.19
48848;BME280;36611;51.638;5.784;2023-04-19T09:50:34;102555.06;;;22.37;36.84
48848;BME280;36611;51.638;5.784;2023-04-19T09:53:21;102552.34;;;22.37;37.28
48848;BME280;36611;51.638;5.784;2023-04-19T09:55:48;102549.47;;;22.38;37.05
48848;BME280;36611;51.638;5.784;2023-04-19T09:58:27;102548.59;;;22.38;37.02
48848;BME280;36611;51.638;5.784;2023-04-19T10:01:12;102537.50;;;22.39;36.72
48848;BME280;36611;51.638;5.784;2023-04-19T10:03:48;102540.94;;;22.41;36.95
48848;BME280;36611;51.638;5.784;2023-04-19T10:06:16;102544.69;;;22.40;37.06
48848;BME280;36611;51.638;5.784;2023-04-19T10:08:48;102546.44;;;22.41;36.72
48848;BME280;36611;51.638;5.784;2023-04-19T10:11:15;102540.81;;;22.43;36.74
48848;BME280;36611;51.638;5.784;2023-04-19T10:13:43;102541.53;;;22.45;36.67
48848;BME280;36611;51.638;5.784;2023-04-19T10:16:13;102536.91;;;22.45;36.87
48848;BME280;36611;51.638;5.784;2023-04-19T10:18:47;102536.78;;;22.47;36.83
48848;BME280;36611;51.638;5.784;2023-04-19T10:21:15;102542.25;;;22.47;36.61
48848;BME280;36611;51.638;5.784;2023-04-19T10:23:42;102530.28;;;22.48;36.85
48848;BME280;36611;51.638;5.784;2023-04-19T10:26:09;102542.97;;;22.49;36.75
48848;BME280;36611;51.638;5.784;2023-04-19T10:28:35;102532.00;;;22.49;36.67
48848;BME280;36611;51.638;5.784;2023-04-19T10:31:03;102536.47;;;22.50;36.56
48848;BME280;36611;51.638;5.784;2023-04-19T10:33:34;102522.63;;;22.51;36.73
48848;BME280;36611;51.638;5.784;2023-04-19T10:36:01;102530.72;;;22.53;36.76
48848;BME280;36611;51.638;5.784;2023-04-19T10:38:38;102531.56;;;22.54;36.45
48848;BME280;36611;51.638;5.784;2023-04-19T10:41:05;102533.44;;;22.53;36.76
48848;BME280;36611;51.638;5.784;2023-04-19T10:43:46;102533.31;;;22.55;36.79
48848;BME280;36611;51.638;5.784;2023-04-19T10:46:14;102527.81;;;22.55;36.57
48848;BME280;36611;51.638;5.784;2023-04-19T10:48:57;102525.94;;;22.55;36.52
48848;BME280;36611;51.638;5.784;2023-04-19T10:51:28;102517.72;;;22.55;36.53
48848;BME280;36611;51.638;5.784;2023-04-19T10:53:59;102516.88;;;22.55;36.89
48848;BME280;36611;51.638;5.784;2023-04-19T11:04:12;102509.38;;;22.57;36.77
48848;BME280;36611;51.638;5.784;2023-04-19T11:09:35;102502.03;;;22.57;36.40
48848;BME280;36611;51.638;5.784;2023-04-19T11:12:11;102501.31;;;22.55;36.64
48848;BME280;36611;51.638;5.784;2023-04-19T11:14:41;102503.19;;;22.55;36.45
48848;BME280;36611;51.638;5.784;2023-04-19T11:17:21;102489.34;;;22.56;36.63
48848;BME280;36611;51.638;5.784;2023-04-19T11:20:00;102489.34;;;22.56;36.68
48848;BME280;36611;51.638;5.784;2023-04-19T11:22:45;102478.38;;;22.56;36.63
48848;BME280;36611;51.638;5.784;2023-04-19T11:25:16;102484.31;;;22.51;36.80
48848;BME280;36611;51.638;5.784;2023-04-19T11:27:46;102484.31;;;22.51;36.37
48848;BME280;36611;51.638;5.784;2023-04-19T11:30:15;102485.88;;;22.54;36.35
48848;BME280;36611;51.638;5.784;2023-04-19T11:32:52;102476.66;;;22.55;36.47
48848;BME280;36611;51.638;5.784;2023-04-19T11:37:47;102467.44;;;22.56;36.63
48848;BME280;36611;51.638;5.784;2023-04-19T11:40:15;102467.44;;;22.56;36.41
48848;BME280;36611;51.638;5.784;2023-04-19T11:42:43;102456.34;;;22.58;36.49
48848;BME280;36611;51.638;5.784;2023-04-19T11:45:10;102459.06;;;22.58;36.43
48848;BME280;36611;51.638;5.784;2023-04-19T11:47:51;102455.47;;;22.57;36.70
48848;BME280;36611;51.638;5.784;2023-04-19T11:50:34;102443.50;;;22.58;36.29
48848;BME280;36611;51.638;5.784;2023-04-19T11:55:49;102443.50;;;22.58;36.70
48848;BME280;36611;51.638;5.784;2023-04-19T11:58:32;102453.44;;;22.59;36.65
48848;BME280;36611;51.638;5.784;2023-04-19T12:01:06;102441.78;;;22.57;36.40
48848;BME280;36611;51.638;5.784;2023-04-19T12:03:43;102426.22;;;22.58;36.66
48848;BME280;36611;51.638;5.784;2023-04-19T12:06:16;102427.06;;;22.58;36.72
48848;BME280;36611;51.638;5.784;2023-04-19T12:08:45;102430.69;;;22.59;36.45
48848;BME280;36611;51.638;5.784;2023-04-19T12:11:13;102425.19;;;22.59;36.64
48848;BME280;36611;51.638;5.784;2023-04-19T12:13:41;102418.84;;;22.58;36.59
48848;BME280;36611;51.638;5.784;2023-04-19T12:16:10;102415.09;;;22.59;36.39
48848;BME280;36611;51.638;5.784;2023-04-19T12:18:55;102410.50;;;22.60;36.37
48848;BME280;36611;51.638;5.784;2023-04-19T12:21:29;102414.09;;;22.60;36.57
48848;BME280;36611;51.638;5.784;2023-04-19T12:24:00;102410.50;;;22.60;36.70
48848;BME280;36611;51.638;5.784;2023-04-19T12:26:28;102402.13;;;22.61;36.40
48848;BME280;36611;51.638;5.784;2023-04-19T12:28:56;102410.34;;;22.61;36.56
48848;BME280;36611;51.638;5.784;2023-04-19T12:31:23;102408.47;;;22.62;36.24
48848;BME280;36611;51.638;5.784;2023-04-19T12:33:50;102397.50;;;22.62;36.35
48848;BME280;36611;51.638;5.784;2023-04-19T12:36:16;102401.97;;;22.63;36.85
48848;BME280;36611;51.638;5.784;2023-04-19T12:38:43;102395.63;;;22.62;36.33
48848;BME280;36611;51.638;5.784;2023-04-19T12:41:10;102400.09;;;22.63;36.38
48848;BME280;36611;51.638;5.784;2023-04-19T12:43:36;102386.41;;;22.63;36.50
48848;BME280;36611;51.638;5.784;2023-04-19T12:46:03;102391.88;;;22.63;36.76
48848;BME280;36611;51.638;5.784;2023-04-19T12:48:30;102386.41;;;22.63;36.68
48848;BME280;36611;51.638;5.784;2023-04-19T12:50:57;102382.81;;;22.63;36.33
48848;BME280;36611;51.638;5.784;2023-04-19T12:53:23;102381.78;;;22.64;36.26
48848;BME280;36611;51.638;5.784;2023-04-19T12:55:50;102370.84;;;22.64;36.51
48848;BME280;36611;51.638;5.784;2023-04-19T12:58:17;102371.72;;;22.64;36.65
48848;BME280;36611;51.638;5.784;2023-04-19T13:00:44;102374.44;;;22.64;36.54
48848;BME280;36611;51.638;5.784;2023-04-19T13:03:11;102368.97;;;22.64;36.34
48848;BME280;36611;51.638;5.784;2023-04-19T13:05:38;102367.94;;;22.65;36.32
48848;BME280;36611;51.638;5.784;2023-04-19T13:08:05;102362.47;;;22.65;36.49
48848;BME280;36611;51.638;5.784;2023-04-19T13:10:31;102357.00;;;22.65;36.36
48848;BME280;36611;51.638;5.784;2023-04-19T13:12:58;102368.81;;;22.66;36.55
48848;BME280;36611;51.638;5.784;2023-04-19T13:15:26;102357.00;;;22.65;36.23